createdAt,value
2023-02-13T00:00:00.719Z,4.16
2023-02-13T00:04:02.291Z,4.16
2023-02-13T00:08:03.929Z,4.16
2023-02-13T00:12:07.269Z,4.16
2023-02-13T00:16:10.045Z,4.14
2023-02-13T00:20:12.098Z,4.07
2023-02-13T00:24:13.587Z,4.07
2023-02-13T00:28:15.174Z,3.93
2023-02-13T00:32:16.848Z,3.89
2023-02-13T00:36:20.950Z,3.89
2023-02-13T00:40:22.702Z,3.80
2023-02-13T00:44:24.360Z,3.80
2023-02-13T00:48:26.787Z,3.75
2023-02-13T00:52:28.791Z,3.72
2023-02-13T00:56:30.350Z,3.70
2023-02-13T01:00:31.991Z,3.67
2023-02-13T01:04:33.665Z,3.56
2023-02-13T01:08:38.305Z,3.56
2023-02-13T01:12:40.135Z,3.56
2023-02-13T01:16:41.797Z,3.57
2023-02-13T01:20:44.247Z,3.57
2023-02-13T01:24:45.804Z,3.53
2023-02-13T01:28:47.624Z,3.50
2023-02-13T01:32:49.398Z,3.50
2023-02-13T01:36:51.004Z,3.49
2023-02-13T01:40:54.164Z,3.49
2023-02-13T01:44:57.794Z,3.45
2023-02-13T01:49:19.421Z,3.42
2023-02-13T01:53:46.556Z,3.39
2023-02-13T01:57:57.799Z,3.31
2023-02-13T02:02:01.225Z,3.30
2023-02-13T02:06:04.351Z,3.31
2023-02-13T02:10:10.197Z,3.28
2023-02-13T02:14:13.370Z,3.26
2023-02-13T02:18:19.587Z,3.25
2023-02-13T02:22:27.855Z,3.22
2023-02-13T02:26:41.679Z,3.25
2023-02-13T02:31:02.038Z,3.19
2023-02-13T02:35:09.894Z,3.20
2023-02-13T02:39:34.952Z,3.19
2023-02-13T02:43:45.710Z,3.22
2023-02-13T02:48:18.340Z,3.19
2023-02-13T02:52:27.537Z,3.20
2023-02-13T02:56:43.907Z,3.17
2023-02-13T03:01:04.838Z,3.13
2023-02-13T03:05:38.220Z,3.16
2023-02-13T03:10:05.244Z,3.13
2023-02-13T03:14:10.239Z,3.12
2023-02-13T03:18:30.560Z,3.10
2023-02-13T03:23:07.434Z,3.04
2023-02-13T03:27:43.949Z,2.98
2023-02-13T03:32:01.548Z,2.90
2023-02-13T03:36:45.605Z,2.90
2023-02-13T03:41:18.287Z,2.77
2023-02-13T03:45:47.666Z,2.66
2023-02-13T03:50:06.514Z,2.61
2023-02-13T03:54:18.486Z,2.59
2023-02-13T03:58:45.383Z,2.58
2023-02-13T04:02:57.501Z,2.59
2023-02-13T04:07:03.685Z,2.59
2023-02-13T04:11:28.161Z,2.61
2023-02-13T04:15:37.183Z,2.59
2023-02-13T04:19:39.177Z,2.62
2023-02-13T04:23:40.745Z,2.63
2023-02-13T04:27:42.506Z,2.65
2023-02-13T04:31:44.118Z,2.62
2023-02-13T04:35:45.704Z,2.58
2023-02-13T04:39:47.263Z,2.58
2023-02-13T04:43:49.043Z,2.58
2023-02-13T04:47:52.550Z,2.59
2023-02-13T04:51:54.048Z,2.56
2023-02-13T04:55:55.606Z,2.55
2023-02-13T04:59:57.107Z,2.53
2023-02-13T05:03:58.671Z,2.50
2023-02-13T05:08:00.544Z,2.48
2023-02-13T05:12:02.189Z,2.48
2023-02-13T05:16:04.044Z,2.45
2023-02-13T05:20:06.669Z,2.47
2023-02-13T05:24:08.245Z,2.47
2023-02-13T05:28:29.804Z,2.47
2023-02-13T05:32:31.338Z,2.38
2023-02-13T05:36:32.971Z,2.38
2023-02-13T05:40:34.486Z,2.38
2023-02-13T05:44:36.408Z,2.33
2023-02-13T05:48:38.217Z,2.36
2023-02-13T05:52:39.826Z,2.33
2023-02-13T05:56:41.562Z,2.32
2023-02-13T06:00:43.160Z,2.22
2023-02-13T06:04:44.749Z,2.11
2023-02-13T06:08:46.351Z,2.08
2023-02-13T06:12:47.837Z,2.09
2023-02-13T06:16:49.433Z,2.04
2023-02-13T06:20:51.019Z,2.01
2023-02-13T06:24:52.637Z,1.92
2023-02-13T06:28:54.205Z,1.81
2023-02-13T06:32:55.869Z,1.75
2023-02-13T06:36:57.376Z,1.70
2023-02-13T06:41:01.874Z,1.65
2023-02-13T06:45:04.213Z,1.63
2023-02-13T06:49:05.771Z,1.63
2023-02-13T06:53:07.365Z,1.61
2023-02-13T06:57:08.875Z,1.61
2023-02-13T07:01:10.384Z,1.60
2023-02-13T07:05:12.360Z,1.67
2023-02-13T07:09:13.944Z,1.70
2023-02-13T07:13:15.608Z,1.56
2023-02-13T07:17:17.226Z,1.64
2023-02-13T07:21:18.839Z,1.60
2023-02-13T07:25:20.876Z,1.70
2023-02-13T07:29:22.527Z,1.71
2023-02-13T07:33:24.715Z,1.65
2023-02-13T07:37:28.928Z,1.68
2023-02-13T07:41:30.474Z,1.70
2023-02-13T07:45:32.128Z,1.75
2023-02-13T07:49:34.340Z,1.74
2023-02-13T07:53:35.890Z,1.77
2023-02-13T07:57:37.431Z,1.89
2023-02-13T08:01:39.017Z,1.93
2023-02-13T08:05:41.124Z,2.07
2023-02-13T08:10:04.242Z,2.08
2023-02-13T08:14:05.865Z,2.20
2023-02-13T08:18:07.500Z,2.30
2023-02-13T08:22:09.324Z,2.38
2023-02-13T08:26:11.118Z,2.44
2023-02-13T08:30:13.304Z,2.61
2023-02-13T08:34:14.868Z,2.74
2023-02-13T08:38:16.440Z,2.84
2023-02-13T08:42:17.968Z,2.94
2023-02-13T08:46:19.992Z,3.02
2023-02-13T08:50:21.581Z,3.13
2023-02-13T08:54:23.192Z,3.22
2023-02-13T08:58:24.876Z,3.37
2023-02-13T09:02:26.521Z,3.44
2023-02-13T09:06:28.489Z,3.57
2023-02-13T09:10:31.733Z,3.60
2023-02-13T09:14:33.581Z,3.75
2023-02-13T09:18:35.621Z,3.84
2023-02-13T09:22:37.196Z,4.02
2023-02-13T09:26:38.729Z,4.07
2023-02-13T09:30:40.383Z,4.13
2023-02-13T09:34:41.974Z,4.21
2023-02-13T09:38:44.211Z,4.31
2023-02-13T09:42:47.361Z,4.35
2023-02-13T09:46:49.267Z,4.53
2023-02-13T09:50:50.986Z,4.61
2023-02-13T09:54:52.616Z,4.69
2023-02-13T09:59:15.428Z,4.86
2023-02-13T10:03:34.828Z,5.09
2023-02-13T10:08:13.502Z,5.32
2023-02-13T10:12:36.595Z,5.40
2023-02-13T10:17:01.093Z,5.45
2023-02-13T10:21:03.894Z,5.62
2023-02-13T10:25:14.580Z,5.66
2023-02-13T10:30:01.395Z,5.77
2023-02-13T10:34:06.395Z,5.85
2023-02-13T10:38:29.680Z,5.98
2023-02-13T10:43:00.868Z,6.19
2023-02-13T10:47:34.868Z,6.27
2023-02-13T10:51:48.509Z,6.39
2023-02-13T10:56:08.169Z,6.54
2023-02-13T11:00:37.215Z,6.53
2023-02-13T11:04:41.357Z,6.72
2023-02-13T11:08:45.849Z,6.81
2023-02-13T11:12:48.735Z,6.90
2023-02-13T11:17:01.143Z,6.94
2023-02-13T11:21:09.039Z,7.15
2023-02-13T11:25:30.001Z,7.33
2023-02-13T11:29:34.146Z,7.39
2023-02-13T11:33:35.794Z,7.45
2023-02-13T11:37:37.411Z,7.58
2023-02-13T11:41:44.677Z,7.81
2023-02-13T11:45:46.455Z,7.82
2023-02-13T11:49:48.138Z,7.92
2023-02-13T11:53:49.652Z,8.07
2023-02-13T11:58:00.037Z,8.22
2023-02-13T12:02:15.457Z,8.24
2023-02-13T12:06:18.495Z,8.39
2023-02-13T12:10:26.267Z,8.36
2023-02-13T12:14:33.311Z,8.57
2023-02-13T12:18:51.127Z,8.65
2023-02-13T12:23:42.072Z,8.73
2023-02-13T12:27:49.406Z,8.85
2023-02-13T12:32:18.940Z,8.97
2023-02-13T12:36:46.688Z,9.01
2023-02-13T12:40:48.231Z,9.04
2023-02-13T12:45:05.463Z,9.17
2023-02-13T12:49:25.847Z,9.17
2023-02-13T12:54:15.490Z,9.27
2023-02-13T12:58:30.922Z,9.27
2023-02-13T13:02:35.543Z,9.44
2023-02-13T13:06:49.423Z,9.56
2023-02-13T13:11:13.927Z,9.63
2023-02-13T13:15:25.869Z,9.73
2023-02-13T13:19:52.535Z,9.81
2023-02-13T13:24:06.970Z,9.86
2023-02-13T13:28:16.391Z,9.96
2023-02-13T13:32:21.192Z,9.93
2023-02-13T13:36:44.977Z,9.95
2023-02-13T13:40:52.654Z,10.04
2023-02-13T13:45:24.885Z,10.10
2023-02-13T13:49:51.564Z,10.18
2023-02-13T13:53:59.516Z,10.25
2023-02-13T13:58:01.067Z,10.32
2023-02-13T14:02:17.671Z,10.39
2023-02-13T14:06:26.860Z,10.46
2023-02-13T14:10:28.358Z,10.55
2023-02-13T14:14:30.680Z,10.65
2023-02-13T14:18:32.994Z,10.68
2023-02-13T14:22:38.284Z,10.73
2023-02-13T14:26:41.097Z,10.80
2023-02-13T14:30:42.999Z,10.83
2023-02-13T14:34:53.066Z,10.83
2023-02-13T14:39:00.181Z,10.81
2023-02-13T14:43:16.973Z,10.80
2023-02-13T14:47:37.378Z,10.75
2023-02-13T14:51:44.565Z,10.72
2023-02-13T14:55:49.396Z,10.68
2023-02-13T14:59:56.091Z,10.69
2023-02-13T15:04:05.437Z,10.63
2023-02-13T15:08:15.408Z,10.63
2023-02-13T15:12:33.514Z,10.57
2023-02-13T15:16:35.036Z,10.47
2023-02-13T15:20:39.880Z,10.38
2023-02-13T15:24:47.049Z,10.34
2023-02-13T15:29:00.996Z,10.28
2023-02-13T15:33:24.328Z,10.22
2023-02-13T15:37:29.663Z,10.11
2023-02-13T15:41:35.908Z,9.99
2023-02-13T15:45:43.385Z,9.91
2023-02-13T15:49:47.572Z,9.83
2023-02-13T15:53:53.928Z,9.78
2023-02-13T15:57:59.197Z,9.62
2023-02-13T16:02:01.270Z,9.45
2023-02-13T16:06:05.385Z,9.32
2023-02-13T16:10:31.464Z,9.20
2023-02-13T16:14:43.811Z,9.08
2023-02-13T16:18:45.754Z,9.01
2023-02-13T16:22:50.659Z,8.93
2023-02-13T16:26:52.310Z,8.85
2023-02-13T16:31:16.486Z,8.76
2023-02-13T16:35:42.626Z,8.61
2023-02-13T16:39:44.182Z,8.52
2023-02-13T16:43:55.951Z,8.42
2023-02-13T16:48:15.393Z,8.32
2023-02-13T16:52:23.386Z,8.25
2023-02-13T16:56:25.042Z,8.21
2023-02-13T17:00:28.079Z,8.13
2023-02-13T17:04:29.683Z,8.06
2023-02-13T17:08:32.250Z,7.99
2023-02-13T17:12:38.683Z,7.94
2023-02-13T17:16:40.272Z,7.85
2023-02-13T17:20:45.543Z,7.79
2023-02-13T17:24:47.177Z,7.74
2023-02-13T17:28:48.816Z,7.67
2023-02-13T17:33:07.531Z,7.62
2023-02-13T17:37:32.852Z,7.57
2023-02-13T17:41:34.492Z,7.50
2023-02-13T17:45:36.160Z,7.45
2023-02-13T17:49:37.777Z,7.39
2023-02-13T17:53:39.720Z,7.36
2023-02-13T17:57:41.251Z,7.29
2023-02-13T18:01:42.826Z,7.26
2023-02-13T18:05:48.417Z,7.23
2023-02-13T18:09:50.289Z,7.32
2023-02-13T18:13:51.874Z,7.30
2023-02-13T18:17:53.383Z,7.26
2023-02-13T18:21:54.964Z,7.19
2023-02-13T18:26:08.551Z,7.15
2023-02-13T18:30:13.119Z,7.11
2023-02-13T18:34:15.065Z,7.07
2023-02-13T18:38:16.650Z,7.01
2023-02-13T18:42:18.752Z,6.99
2023-02-13T18:46:20.315Z,6.93
2023-02-13T18:50:21.942Z,6.87
2023-02-13T18:54:24.034Z,6.78
2023-02-13T18:58:25.675Z,6.75
2023-02-13T19:02:27.306Z,6.71
2023-02-13T19:06:29.164Z,6.73
2023-02-13T19:10:31.059Z,6.76
2023-02-13T19:14:32.875Z,6.79
2023-02-13T19:18:37.249Z,6.81
2023-02-13T19:22:38.788Z,6.83
2023-02-13T19:26:40.330Z,6.82
2023-02-13T19:30:42.063Z,6.81
2023-02-13T19:34:43.804Z,6.79
2023-02-13T19:38:45.991Z,6.78
2023-02-13T19:42:47.557Z,6.76
2023-02-13T19:46:49.257Z,6.72
2023-02-13T19:50:50.895Z,6.65
2023-02-13T19:54:54.126Z,6.65
2023-02-13T19:58:56.024Z,6.65
2023-02-13T20:03:03.765Z,6.64
2023-02-13T20:07:07.512Z,6.61
2023-02-13T20:11:10.611Z,6.61
2023-02-13T20:15:12.173Z,6.60
2023-02-13T20:19:14.212Z,6.57
2023-02-13T20:23:17.903Z,6.55
2023-02-13T20:27:19.535Z,6.53
2023-02-13T20:31:22.185Z,6.50
2023-02-13T20:35:23.971Z,6.45
2023-02-13T20:39:25.809Z,6.42
2023-02-13T20:43:27.371Z,6.38
2023-02-13T20:47:29.033Z,6.33
2023-02-13T20:51:30.938Z,6.27
2023-02-13T20:55:32.696Z,6.20
2023-02-13T20:59:34.336Z,6.16
2023-02-13T21:03:35.995Z,6.11
2023-02-13T21:07:37.713Z,6.08
2023-02-13T21:11:42.337Z,6.06
2023-02-13T21:15:48.065Z,6.05
2023-02-13T21:19:49.671Z,5.99
2023-02-13T21:23:56.318Z,5.98
2023-02-13T21:27:58.777Z,5.95
2023-02-13T21:32:00.337Z,5.87
2023-02-13T21:36:09.880Z,5.85
2023-02-13T21:40:11.875Z,5.81
2023-02-13T21:44:14.975Z,5.78
2023-02-13T21:48:16.721Z,5.74
2023-02-13T21:52:18.416Z,5.67
2023-02-13T21:56:22.964Z,5.67
2023-02-13T22:00:24.631Z,5.63
2023-02-13T22:04:26.214Z,5.59
2023-02-13T22:08:27.807Z,5.55
2023-02-13T22:12:30.245Z,5.51
2023-02-13T22:16:34.641Z,5.45
2023-02-13T22:20:36.285Z,5.44
2023-02-13T22:24:37.888Z,5.35
2023-02-13T22:28:39.584Z,5.35
2023-02-13T22:32:41.825Z,5.32
2023-02-13T22:36:43.388Z,5.30
2023-02-13T22:40:44.960Z,5.26
2023-02-13T22:44:46.782Z,5.17
2023-02-13T22:48:51.869Z,5.08
2023-02-13T22:52:53.432Z,5.02
2023-02-13T22:56:55.113Z,5.04
2023-02-13T23:00:57.047Z,5.04
2023-02-13T23:04:58.793Z,4.97
2023-02-13T23:09:00.325Z,4.96
2023-02-13T23:13:02.146Z,4.93
2023-02-13T23:17:22.351Z,4.91
2023-02-13T23:21:24.978Z,4.83
2023-02-13T23:25:26.584Z,4.83
2023-02-13T23:29:28.137Z,4.79
2023-02-13T23:33:29.856Z,4.75
2023-02-13T23:37:31.424Z,4.71
2023-02-13T23:41:32.996Z,4.71
2023-02-13T23:45:34.603Z,4.64
2023-02-13T23:49:36.219Z,4.62
2023-02-13T23:53:38.027Z,4.56
2023-02-13T23:57:39.651Z,4.56
